Time;durP1;ratioP1;P1;durP2;ratioP2;P2;SDS_P1;SDS_P2;PMS_P1;PMS_P2;Temp;Humidity;BMP_temperature;BMP_pressure;BME280_temperature;BME280_humidity;BME280_pressure;Samples;Min_cycle;Max_cycle;Signal;HPM_P1;HPM_P2
2023/12/04 00:00:26;;;;;;;;;;;;;;;18.56;63.90;101627.69;7410256;19;1575;-86
2023/12/04 00:02:54;;;;;;;;;;;;;;;18.57;64.18;101623.16;7407718;19;1415;-86
2023/12/04 00:05:23;;;;;;;;;;;;;;;18.52;64.08;101636.88;7410880;19;1490;-86
2023/12/04 00:07:51;;;;;;;;;;;;;;;18.54;64.10;101640.31;7412382;19;1309;-86
2023/12/04 00:10:19;;;;;;;;;;;;;;;18.57;63.91;101642.78;7410282;19;1857;-86
2023/12/04 00:12:48;;;;;;;;;;;;;;;18.56;63.93;101654.47;7408022;19;1576;-86
2023/12/04 00:15:16;;;;;;;;;;;;;;;18.54;63.91;101651.00;7411686;19;1187;-87
2023/12/04 00:17:48;;;;;;;;;;;;;;;18.48;64.13;101641.63;7408017;19;1538;-87
2023/12/04 00:20:17;;;;;;;;;;;;;;;18.52;64.32;101666.34;7409750;19;1578;-87
2023/12/04 00:22:45;;;;;;;;;;;;;;;18.49;64.15;101623.72;7408081;19;1828;-84
2023/12/04 00:25:13;;;;;;;;;;;;;;;18.52;64.19;101636.88;7409182;19;1561;-85
2023/12/04 00:27:42;;;;;;;;;;;;;;;18.52;64.20;101649.44;7409150;19;1502;-86
2023/12/04 00:30:11;;;;;;;;;;;;;;;18.49;64.21;101655.88;7413121;19;1854;-86
2023/12/04 00:32:40;;;;;;;;;;;;;;;18.46;64.31;101654.28;7414936;19;1580;-86
2023/12/04 00:35:15;;;;;;;;;;;;;;;18.51;64.21;101661.13;7410478;19;1702;-85
2023/12/04 00:37:54;;;;;;;;;;;;;;;18.43;64.40;101677.72;7411709;19;1611;-86
2023/12/04 00:40:23;;;;;;;;;;;;;;;18.41;64.38;101667.13;7408346;19;1408;-85
2023/12/04 00:42:52;;;;;;;;;;;;;;;18.44;64.48;101690.16;7402285;19;1803;-85
2023/12/04 00:45:22;;;;;;;;;;;;;;;18.43;64.18;101680.41;7407417;19;1524;-85
2023/12/04 00:47:51;;;;;;;;;;;;;;;18.44;64.48;101672.28;7407748;19;1651;-86
2023/12/04 00:50:22;;;;;;;;;;;;;;;18.46;64.44;101682.84;7413138;19;1814;-85
2023/12/04 00:52:50;;;;;;;;;;;;;;;18.48;64.35;101662.16;7410418;19;1535;-86
2023/12/04 00:55:20;;;;;;;;;;;;;;;18.40;64.72;101680.63;7408853;19;1506;-85
2023/12/04 00:57:48;;;;;;;;;;;;;;;18.38;64.60;101686.09;7407144;19;1501;-85
2023/12/04 01:00:18;;;;;;;;;;;;;;;18.38;64.43;101694.16;7406119;19;1451;-85
2023/12/04 01:02:46;;;;;;;;;;;;;;;18.37;64.74;101692.41;7405552;19;1479;-85
2023/12/04 01:05:16;;;;;;;;;;;;;;;18.37;64.65;101691.56;7406614;19;1394;-84
2023/12/04 01:07:47;;;;;;;;;;;;;;;18.31;64.75;101687.50;7405871;19;1497;-85
2023/12/04 01:10:16;;;;;;;;;;;;;;;18.33;64.66;101682.03;7407000;19;1853;-85
2023/12/04 01:12:44;;;;;;;;;;;;;;;18.37;64.54;101676.34;7407108;19;1871;-85
2023/12/04 01:15:12;;;;;;;;;;;;;;;18.37;64.47;101670.16;7412823;19;1556;-84
2023/12/04 01:17:41;;;;;;;;;;;;;;;18.34;64.59;101665.84;7410985;19;1404;-85
2023/12/04 01:20:10;;;;;;;;;;;;;;;18.41;64.43;101685.03;7410787;19;1414;-85
2023/12/04 01:22:38;;;;;;;;;;;;;;;18.34;64.72;101702.47;7409904;19;1660;-86
2023/12/04 01:25:10;;;;;;;;;;;;;;;18.34;64.56;101687.25;7407150;19;1550;-86
2023/12/04 01:27:39;;;;;;;;;;;;;;;18.32;64.70;101680.31;7413607;19;1517;-86
2023/12/04 01:30:09;;;;;;;;;;;;;;;18.29;64.53;101662.66;7415295;19;1711;-85
2023/12/04 01:32:45;;;;;;;;;;;;;;;18.34;64.66;101665.84;7410739;19;1824;-85
2023/12/04 01:35:13;;;;;;;;;;;;;;;18.31;64.61;101681.28;7413360;19;1364;-86
2023/12/04 01:37:42;;;;;;;;;;;;;;;18.31;64.79;101705.38;7405099;19;1395;-85
2023/12/04 01:40:14;;;;;;;;;;;;;;;18.27;64.71;101692.19;7414710;19;1211;-86
2023/12/04 01:42:42;;;;;;;;;;;;;;;18.26;64.61;101717.28;7411135;19;1653;-86
2023/12/04 01:45:11;;;;;;;;;;;;;;;18.28;64.81;101719.81;7414575;19;1159;-86
2023/12/04 01:47:39;;;;;;;;;;;;;;;18.25;64.64;101704.84;7410637;19;1560;-85
2023/12/04 01:50:09;;;;;;;;;;;;;;;18.32;64.54;101713.28;7412830;19;1562;-85
2023/12/04 01:52:38;;;;;;;;;;;;;;;18.24;64.69;101708.50;7411138;19;1834;-86
2023/12/04 01:55:09;;;;;;;;;;;;;;;18.29;64.57;101705.50;7410165;19;1557;-87
2023/12/04 01:57:40;;;;;;;;;;;;;;;18.26;64.57;101717.28;7410678;19;1558;-87
2023/12/04 02:00:11;;;;;;;;;;;;;;;18.26;64.68;101705.69;7413116;19;1497;-86
2023/12/04 02:02:40;;;;;;;;;;;;;;;18.33;64.41;101714.16;7413267;19;1261;-85
2023/12/04 02:05:10;;;;;;;;;;;;;;;18.26;64.81;101736.03;7414846;19;1581;-86
2023/12/04 02:07:38;;;;;;;;;;;;;;;18.23;64.80;101727.34;7413271;19;1282;-86
2023/12/04 02:10:08;;;;;;;;;;;;;;;18.24;64.64;101735.28;7412969;19;1513;-86
2023/12/04 02:12:40;;;;;;;;;;;;;;;18.23;64.88;101738.91;7410250;19;1821;-86
2023/12/04 02:15:09;;;;;;;;;;;;;;;18.21;64.67;101730.13;7410596;19;1599;-86
2023/12/04 02:17:38;;;;;;;;;;;;;;;18.18;64.72;101724.13;7408229;19;1616;-86
2023/12/04 02:20:07;;;;;;;;;;;;;;;18.22;64.83;101728.28;7408310;19;1606;-86
2023/12/04 02:22:37;;;;;;;;;;;;;;;18.18;64.91;101730.31;7408587;19;1644;-86
2023/12/04 02:25:09;;;;;;;;;;;;;;;18.21;65.04;101748.00;7404828;19;1490;-86
2023/12/04 02:27:40;;;;;;;;;;;;;;;18.21;65.05;101746.19;7410693;19;1656;-85
2023/12/04 02:30:11;;;;;;;;;;;;;;;18.21;64.95;101754.22;7411187;19;1331;-85
2023/12/04 02:32:42;;;;;;;;;;;;;;;18.22;65.18;101758.63;7405616;19;1842;-85
2023/12/04 02:35:11;;;;;;;;;;;;;;;18.39;64.28;101745.88;7408378;19;1495;-84
2023/12/04 02:37:46;;;;;;;;;;;;;;;19.11;62.77;101751.44;7408463;19;1373;-84
2023/12/04 02:40:18;;;;;;;;;;;;;;;19.98;60.40;101737.84;7408848;19;1541;-85
2023/12/04 02:42:47;;;;;;;;;;;;;;;20.51;59.18;101758.78;7405678;19;1595;-85
2023/12/04 02:45:15;;;;;;;;;;;;;;;20.70;58.38;101745.63;7409060;19;1529;-85
2023/12/04 02:47:48;;;;;;;;;;;;;;;20.58;58.75;101739.38;7405975;19;1903;-84
2023/12/04 02:50:18;;;;;;;;;;;;;;;20.59;58.99;101759.06;7408805;19;1501;-86
2023/12/04 02:52:46;;;;;;;;;;;;;;;20.57;58.89;101756.50;7406737;19;1845;-86
2023/12/04 02:55:17;;;;;;;;;;;;;;;20.62;58.81;101751.63;7411638;19;1510;-85
2023/12/04 02:57:45;;;;;;;;;;;;;;;20.58;59.12;101766.25;7408481;19;1649;-86
2023/12/04 03:00:15;;;;;;;;;;;;;;;20.54;59.03;101756.72;7406951;19;1402;-85
2023/12/04 03:02:43;;;;;;;;;;;;;;;20.57;59.10;101761.88;7405825;19;1491;-86
2023/12/04 03:05:13;;;;;;;;;;;;;;;20.60;59.06;101775.06;7408907;19;1390;-85
2023/12/04 03:07:42;;;;;;;;;;;;;;;20.56;58.95;101757.44;7408459;19;1281;-85
2023/12/04 03:10:10;;;;;;;;;;;;;;;20.63;59.00;101768.59;7406418;19;1408;-86
2023/12/04 03:12:41;;;;;;;;;;;;;;;20.69;58.76;101783.38;7404119;19;1897;-85
2023/12/04 03:15:11;;;;;;;;;;;;;;;20.68;58.66;101776.31;7406202;19;1464;-85
2023/12/04 03:17:39;;;;;;;;;;;;;;;20.74;58.80;101781.19;7403956;19;1499;-87
2023/12/04 03:20:08;;;;;;;;;;;;;;;20.84;58.72;101790.22;7407299;19;1238;-85
2023/12/04 03:22:36;;;;;;;;;;;;;;;20.83;58.54;101792.06;7406520;19;1737;-85
2023/12/04 03:25:05;;;;;;;;;;;;;;;20.87;58.20;101795.38;7406483;19;1557;-85
2023/12/04 03:27:34;;;;;;;;;;;;;;;20.90;58.34;101788.88;7405438;19;1928;-84
2023/12/04 03:30:07;;;;;;;;;;;;;;;20.86;58.52;101786.44;7408172;19;1593;-85
2023/12/04 03:32:41;;;;;;;;;;;;;;;20.89;58.56;101790.72;7406361;19;1860;-86
2023/12/04 03:35:10;;;;;;;;;;;;;;;20.91;58.52;101793.28;7406285;19;1482;-86
2023/12/04 03:37:39;;;;;;;;;;;;;;;20.88;58.82;101799.75;7403038;19;1475;-86
2023/12/04 03:40:11;;;;;;;;;;;;;;;20.86;58.73;101796.34;7405309;19;1926;-86
2023/12/04 03:42:40;;;;;;;;;;;;;;;20.91;58.58;101799.53;7405779;19;1883;-86
2023/12/04 03:45:12;;;;;;;;;;;;;;;20.92;58.66;101795.00;7400801;19;1507;-86
2023/12/04 03:47:41;;;;;;;;;;;;;;;20.92;58.73;101811.13;7400951;19;1397;-86
2023/12/04 03:50:09;;;;;;;;;;;;;;;20.98;58.35;101805.25;7400309;19;1412;-86
2023/12/04 03:52:37;;;;;;;;;;;;;;;21.06;58.22;101813.56;7399696;19;1854;-86
2023/12/04 03:55:06;;;;;;;;;;;;;;;21.02;58.32;101802.19;7400617;19;1843;-86
2023/12/04 03:57:35;;;;;;;;;;;;;;;21.00;58.33;101796.06;7400568;19;1850;-86
2023/12/04 04:00:03;;;;;;;;;;;;;;;20.93;58.46;101802.94;7401478;19;1834;-86
2023/12/04 04:02:34;;;;;;;;;;;;;;;20.30;61.04;101815.06;7406394;19;1541;-86
2023/12/04 04:05:02;;;;;;;;;;;;;;;19.90;61.75;101812.75;7408875;19;1464;-85
2023/12/04 04:07:31;;;;;;;;;;;;;;;19.62;62.36;101820.16;7407739;19;1337;-86
2023/12/04 04:10:00;;;;;;;;;;;;;;;19.43;62.70;101804.53;7405639;19;1326;-86
2023/12/04 04:12:29;;;;;;;;;;;;;;;19.28;63.41;101814.59;7405028;19;1833;-88
2023/12/04 04:14:58;;;;;;;;;;;;;;;19.19;63.36;101812.56;7405482;19;1586;-87
2023/12/04 04:17:27;;;;;;;;;;;;;;;19.21;63.24;101816.00;7408018;19;1487;-87
2023/12/04 04:20:00;;;;;;;;;;;;;;;19.12;63.47;101811.28;7405891;19;1497;-87
2023/12/04 04:22:28;;;;;;;;;;;;;;;19.12;63.24;101816.63;7405098;19;1649;-85
2023/12/04 04:24:57;;;;;;;;;;;;;;;19.28;63.15;101818.13;7407873;19;1219;-86
2023/12/04 04:27:26;;;;;;;;;;;;;;;19.76;61.63;101814.63;7405303;19;1574;-84
2023/12/04 04:29:54;;;;;;;;;;;;;;;19.95;61.82;101819.47;7405052;19;1407;-85
2023/12/04 04:32:22;;;;;;;;;;;;;;;19.66;62.13;101816.25;7403387;19;1864;-84
2023/12/04 04:34:51;;;;;;;;;;;;;;;19.41;62.85;101834.16;7405719;19;1516;-86
2023/12/04 04:37:22;;;;;;;;;;;;;;;19.25;63.50;101838.94;7408248;19;1594;-86
2023/12/04 04:39:51;;;;;;;;;;;;;;;19.13;63.97;101843.34;7407232;19;1245;-87
2023/12/04 04:42:19;;;;;;;;;;;;;;;19.31;62.94;101838.47;7408452;19;1270;-87
2023/12/04 04:44:48;;;;;;;;;;;;;;;19.85;61.64;101839.91;7408701;19;1874;-88
2023/12/04 04:47:16;;;;;;;;;;;;;;;19.83;61.83;101841.88;7410453;19;1522;-87
2023/12/04 04:49:44;;;;;;;;;;;;;;;19.53;62.15;101844.97;7412894;19;1482;-87
2023/12/04 04:52:13;;;;;;;;;;;;;;;19.26;62.79;101840.66;7411049;19;1861;-88
2023/12/04 04:54:44;;;;;;;;;;;;;;;19.01;63.08;101853.13;7410740;19;1639;-86
2023/12/04 04:57:12;;;;;;;;;;;;;;;19.06;62.15;101851.00;7409229;19;1542;-86
2023/12/04 04:59:41;;;;;;;;;;;;;;;19.41;60.73;101852.09;7410886;19;1548;-86
2023/12/04 05:02:09;;;;;;;;;;;;;;;19.81;59.78;101858.06;7414694;19;1584;-85
2023/12/04 05:04:38;;;;;;;;;;;;;;;19.72;59.83;101874.03;7414249;19;1601;-85
2023/12/04 05:07:06;;;;;;;;;;;;;;;19.39;60.79;101875.47;7411120;19;1413;-87
2023/12/04 05:09:35;;;;;;;;;;;;;;;19.13;62.41;101872.84;7410480;19;1667;-87
2023/12/04 05:12:06;;;;;;;;;;;;;;;19.03;62.67;101864.59;7412733;19;1845;-87
2023/12/04 05:14:35;;;;;;;;;;;;;;;19.32;62.02;101879.56;7413095;19;1651;-86
2023/12/04 05:17:03;;;;;;;;;;;;;;;19.76;60.87;101875.50;7411869;19;1894;-87
2023/12/04 05:19:32;;;;;;;;;;;;;;;19.89;60.45;101875.44;7409381;19;1504;-82
2023/12/04 05:22:00;;;;;;;;;;;;;;;19.50;61.25;101877.38;7410057;19;1229;-89
2023/12/04 05:24:28;;;;;;;;;;;;;;;19.22;62.46;101882.06;7406411;19;1501;-88
2023/12/04 05:26:57;;;;;;;;;;;;;;;19.02;63.00;101870.94;7407729;19;1507;-88
2023/12/04 05:29:28;;;;;;;;;;;;;;;19.07;63.29;101895.59;7407298;19;1470;-88
2023/12/04 05:31:57;;;;;;;;;;;;;;;19.53;61.94;101895.94;7409666;19;1857;-88
2023/12/04 05:34:25;;;;;;;;;;;;;;;19.85;61.04;101889.09;7410698;19;1973;-88
2023/12/04 05:36:54;;;;;;;;;;;;;;;19.61;61.49;101890.88;7410778;19;1881;-88
2023/12/04 05:39:22;;;;;;;;;;;;;;;19.25;62.41;101882.69;7408331;19;1934;-88
2023/12/04 05:41:51;;;;;;;;;;;;;;;19.04;63.03;101889.59;7410698;19;1332;-88
2023/12/04 05:44:19;;;;;;;;;;;;;;;18.82;62.74;101890.22;7407907;19;1579;-87
2023/12/04 05:46:59;;;;;;;;;;;;;;;19.19;62.20;101885.81;7412383;19;1481;-88
2023/12/04 05:49:29;;;;;;;;;;;;;;;19.60;61.41;101883.81;7408318;19;1937;-89
2023/12/04 05:51:57;;;;;;;;;;;;;;;19.74;60.93;101891.72;7406228;19;1853;-86
2023/12/04 05:54:25;;;;;;;;;;;;;;;19.46;61.83;101909.81;7407420;19;1525;-88
2023/12/04 05:56:54;;;;;;;;;;;;;;;19.15;62.33;101899.56;7401787;19;1607;-86
2023/12/04 05:59:22;;;;;;;;;;;;;;;18.87;62.54;101901.50;7406497;19;1508;-87
2023/12/04 06:01:50;;;;;;;;;;;;;;;18.98;62.04;101909.66;7413238;19;1598;-88
2023/12/04 06:04:21;;;;;;;;;;;;;;;19.44;60.93;101911.75;7413016;19;1940;-88
2023/12/04 06:06:50;;;;;;;;;;;;;;;19.59;57.99;101906.22;7409590;19;1509;-88
2023/12/04 06:09:18;;;;;;;;;;;;;;;19.73;57.77;101922.19;7413227;19;1413;-87
2023/12/04 06:11:47;;;;;;;;;;;;;;;19.91;58.06;101920.00;7409382;19;1493;-88
2023/12/04 06:14:15;;;;;;;;;;;;;;;19.75;56.55;101917.56;7410318;19;1572;-88
2023/12/04 06:16:54;;;;;;;;;;;;;;;19.77;56.90;101921.00;7407499;19;1599;-88
2023/12/04 06:19:26;;;;;;;;;;;;;;;19.84;56.89;101911.53;7407123;19;1699;-88
2023/12/04 06:21:54;;;;;;;;;;;;;;;19.85;57.05;101918.59;7405656;19;1788;-88
2023/12/04 06:24:23;;;;;;;;;;;;;;;19.81;57.32;101925.19;7408025;19;952;-88
2023/12/04 06:26:52;;;;;;;;;;;;;;;19.86;57.09;101928.41;7406581;19;1473;-88
2023/12/04 06:29:30;;;;;;;;;;;;;;;19.91;57.15;101932.56;7405940;19;1464;-88
2023/12/04 06:32:01;;;;;;;;;;;;;;;19.90;57.29;101925.50;7409486;19;1861;-88
2023/12/04 06:34:38;;;;;;;;;;;;;;;19.89;57.36;101929.97;7408868;19;1641;-88
2023/12/04 06:37:11;;;;;;;;;;;;;;;19.96;57.28;101930.41;7408832;19;1394;-88
2023/12/04 06:39:40;;;;;;;;;;;;;;;19.96;57.47;101947.38;7412187;19;1552;-88
2023/12/04 06:42:10;;;;;;;;;;;;;;;20.03;57.44;101948.66;7410141;19;1036;-89
2023/12/04 06:44:41;;;;;;;;;;;;;;;19.71;58.43;101939.38;7414692;19;1130;-88
2023/12/04 06:47:11;;;;;;;;;;;;;;;19.35;59.26;101946.41;7416783;19;1936;-88
2023/12/04 06:49:42;;;;;;;;;;;;;;;19.10;59.71;101941.91;7420962;19;1551;-88
2023/12/04 06:52:11;;;;;;;;;;;;;;;19.00;60.50;101960.44;7408147;19;1854;-89
2023/12/04 06:54:39;;;;;;;;;;;;;;;19.41;59.44;101960.22;7409319;19;1477;-89
2023/12/04 06:57:07;;;;;;;;;;;;;;;19.70;59.01;101956.44;7400580;19;1407;-89
2023/12/04 06:59:36;;;;;;;;;;;;;;;19.98;58.01;101966.91;7411751;19;1289;-88
2023/12/04 07:02:10;;;;;;;;;;;;;;;19.63;59.00;101959.53;7409526;19;1378;-88
2023/12/04 07:04:43;;;;;;;;;;;;;;;19.32;59.61;101963.59;7411863;19;1767;-89
2023/12/04 07:07:12;;;;;;;;;;;;;;;19.05;60.29;101964.53;7409005;19;1119;-89
2023/12/04 07:09:40;;;;;;;;;;;;;;;19.04;60.58;101992.31;7410806;19;1839;-89
2023/12/04 07:12:09;;;;;;;;;;;;;;;19.51;59.46;101976.53;7409222;19;1883;-91
2023/12/04 07:14:37;;;;;;;;;;;;;;;19.88;58.71;101976.59;7410535;19;1508;-90
2023/12/04 07:17:12;;;;;;;;;;;;;;;20.13;58.17;101983.69;7416255;19;1282;-90
2023/12/04 07:19:43;;;;;;;;;;;;;;;20.37;57.50;101988.22;7416625;19;1511;-90
2023/12/04 07:22:11;;;;;;;;;;;;;;;20.42;57.42;101980.69;7412846;19;1488;-90
2023/12/04 07:24:41;;;;;;;;;;;;;;;20.42;57.15;101980.69;7415576;19;1411;-90
2023/12/04 07:27:14;;;;;;;;;;;;;;;20.53;56.79;101975.38;7415876;19;1208;-89
2023/12/04 07:29:43;;;;;;;;;;;;;;;20.58;57.01;101981.25;7419316;19;1488;-89
2023/12/04 07:32:15;;;;;;;;;;;;;;;20.26;57.62;101986.34;7417320;19;1397;-89
2023/12/04 07:34:48;;;;;;;;;;;;;;;19.79;58.83;101978.13;7416618;19;1499;-89
2023/12/04 07:37:16;;;;;;;;;;;;;;;19.54;59.49;101995.09;7419126;19;1458;-90
2023/12/04 07:39:46;;;;;;;;;;;;;;;19.37;60.06;101984.72;7418126;19;1560;-90
2023/12/04 07:42:14;;;;;;;;;;;;;;;19.33;60.18;102001.97;7411258;19;1380;-89
2023/12/04 07:44:43;;;;;;;;;;;;;;;19.22;60.39;102006.28;7416295;19;1256;-88
2023/12/04 07:47:11;;;;;;;;;;;;;;;19.87;58.84;101990.97;7412221;19;1498;-88
2023/12/04 07:49:39;;;;;;;;;;;;;;;20.29;57.62;102001.38;7414139;19;1509;-89
2023/12/04 07:52:11;;;;;;;;;;;;;;;20.11;57.67;101991.00;7411124;19;1964;-89
2023/12/04 07:54:40;;;;;;;;;;;;;;;19.82;58.02;102014.63;7410571;19;1821;-88
2023/12/04 07:57:12;;;;;;;;;;;;;;;19.55;58.33;101996.81;7408931;19;1699;-88
2023/12/04 07:59:42;;;;;;;;;;;;;;;19.42;58.74;101986.09;7413988;19;1419;-88
2023/12/04 08:02:14;;;;;;;;;;;;;;;19.34;58.94;102001.88;7413030;19;1498;-88
2023/12/04 08:04:43;;;;;;;;;;;;;;;19.52;58.67;102001.53;7416987;19;1518;-87
2023/12/04 08:07:14;;;;;;;;;;;;;;;20.02;57.45;102010.50;7413935;19;1094;-86
2023/12/04 08:09:43;;;;;;;;;;;;;;;20.16;57.01;102007.66;7415854;19;1882;-88
2023/12/04 08:12:21;;;;;;;;;;;;;;;19.89;57.71;102007.00;7415175;19;1772;-88
2023/12/04 08:14:56;;;;;;;;;;;;;;;19.62;58.64;101998.09;7412820;19;1823;-87
2023/12/04 08:17:25;;;;;;;;;;;;;;;19.50;58.83;102000.78;7414590;19;1408;-88
2023/12/04 08:19:54;;;;;;;;;;;;;;;19.45;58.93;101996.59;7412200;19;1531;-88
2023/12/04 08:22:30;;;;;;;;;;;;;;;19.70;58.38;102004.75;7408434;19;1551;-88
2023/12/04 08:24:59;;;;;;;;;;;;;;;20.26;56.91;101991.72;7412809;19;1254;-88
2023/12/04 08:27:28;;;;;;;;;;;;;;;20.24;57.00;101993.66;7412257;19;1521;-88
2023/12/04 08:30:06;;;;;;;;;;;;;;;19.98;57.95;101987.53;7417539;19;1516;-89
2023/12/04 08:32:39;;;;;;;;;;;;;;;19.71;58.64;101995.72;7417314;19;1079;-87
2023/12/04 08:35:08;;;;;;;;;;;;;;;19.61;58.76;102003.56;7416161;19;1394;-88
2023/12/04 08:37:49;;;;;;;;;;;;;;;19.51;59.15;102002.50;7413172;19;1041;-89
2023/12/04 08:40:18;;;;;;;;;;;;;;;19.43;59.51;102001.22;7416265;19;1482;-89
2023/12/04 08:42:47;;;;;;;;;;;;;;;20.03;58.05;101979.97;7410826;19;1273;-88
2023/12/04 08:45:16;;;;;;;;;;;;;;;20.41;56.82;101989.72;7415567;19;1387;-89
2023/12/04 08:47:47;;;;;;;;;;;;;;;20.27;57.30;101996.09;7412308;19;1859;-89
2023/12/04 08:50:25;;;;;;;;;;;;;;;19.96;57.89;101992.16;7410339;19;1493;-89
2023/12/04 08:52:57;;;;;;;;;;;;;;;19.72;58.54;101986.75;7408484;19;1945;-89
2023/12/04 08:55:26;;;;;;;;;;;;;;;19.63;58.91;101982.84;7405844;19;1609;-89
2023/12/04 08:57:54;;;;;;;;;;;;;;;19.61;59.09;101984.78;7400870;19;1047;-89
2023/12/04 09:00:23;;;;;;;;;;;;;;;19.51;59.33;101971.16;7403993;19;1866;-88
2023/12/04 09:02:52;;;;;;;;;;;;;;;20.16;57.73;101975.44;7407150;19;1288;-89
2023/12/04 09:05:23;;;;;;;;;;;;;;;20.54;56.87;101962.78;7406761;19;1588;-89
2023/12/04 09:07:52;;;;;;;;;;;;;;;20.25;57.29;101972.06;7405245;19;1493;-89
2023/12/04 09:10:26;;;;;;;;;;;;;;;19.97;57.93;101969.69;7409092;19;1352;-89
2023/12/04 09:12:54;;;;;;;;;;;;;;;19.74;58.28;101969.56;7410897;19;1813;-89
2023/12/04 09:15:28;;;;;;;;;;;;;;;19.61;58.97;101966.00;7409231;19;1833;-88
2023/12/04 09:17:57;;;;;;;;;;;;;;;19.55;59.09;101967.28;7409919;19;1533;-89
2023/12/04 09:20:25;;;;;;;;;;;;;;;20.02;58.33;101967.53;7410698;19;1247;-88
2023/12/04 09:22:54;;;;;;;;;;;;;;;20.47;57.12;101959.69;7407622;19;1273;-89
2023/12/04 09:25:25;;;;;;;;;;;;;;;20.24;57.56;101961.44;7404766;19;1627;-88
2023/12/04 09:27:54;;;;;;;;;;;;;;;19.98;58.33;101971.44;7405266;19;1564;-88
2023/12/04 09:30:22;;;;;;;;;;;;;;;19.73;58.48;101962.47;7403477;19;1501;-88
2023/12/04 09:32:51;;;;;;;;;;;;;;;19.62;58.68;101957.00;7408753;19;1479;-88
2023/12/04 09:35:19;;;;;;;;;;;;;;;19.57;59.11;101949.25;7410642;19;1837;-88
2023/12/04 09:37:50;;;;;;;;;;;;;;;19.65;58.55;101951.41;7414204;19;1488;-78
2023/12/04 09:40:19;;;;;;;;;;;;;;;20.30;57.20;101944.84;7415168;19;1504;-78
2023/12/04 09:42:50;;;;;;;;;;;;;;;20.43;56.57;101947.47;7412738;19;1503;-78
2023/12/04 09:45:20;;;;;;;;;;;;;;;20.07;57.29;101938.50;7417652;19;1727;-80
2023/12/04 09:47:52;;;;;;;;;;;;;;;19.85;58.04;101939.25;7422791;19;1367;-80
2023/12/04 09:50:22;;;;;;;;;;;;;;;19.70;58.26;101930.47;7415143;19;1407;-80
2023/12/04 09:52:51;;;;;;;;;;;;;;;19.67;58.55;101936.03;7419474;19;1419;-79
2023/12/04 09:55:19;;;;;;;;;;;;;;;19.67;58.69;101930.66;7419289;19;1834;-80
2023/12/04 09:57:51;;;;;;;;;;;;;;;20.09;57.99;101936.56;7418248;19;1520;-80
2023/12/04 10:00:21;;;;;;;;;;;;;;;20.58;56.70;101929.31;7426546;19;1403;-79
2023/12/04 10:02:52;;;;;;;;;;;;;;;20.48;56.79;101934.53;7425878;19;2363;-79
2023/12/04 10:05:20;;;;;;;;;;;;;;;20.16;57.50;101937.84;7429105;19;1426;-78
2023/12/04 10:07:50;;;;;;;;;;;;;;;19.94;58.30;101951.16;7436646;19;1127;-77
2023/12/04 10:10:19;;;;;;;;;;;;;;;19.82;58.27;101928.75;7429488;19;1055;-77
2023/12/04 10:12:47;;;;;;;;;;;;;;;19.72;58.57;101928.56;7426921;19;1443;-86
2023/12/04 10:15:18;;;;;;;;;;;;;;;19.68;58.79;101927.88;7429408;19;1814;-85
2023/12/04 10:17:47;;;;;;;;;;;;;;;19.93;58.33;101925.25;7430553;19;1222;-86
2023/12/04 10:20:21;;;;;;;;;;;;;;;20.32;57.21;101936.69;7425815;19;1474;-86
2023/12/04 10:22:59;;;;;;;;;;;;;;;20.31;57.11;101918.84;7420912;19;1436;-87
2023/12/04 10:25:28;;;;;;;;;;;;;;;20.08;57.83;101932.19;7423755;19;1641;-87
2023/12/04 10:27:57;;;;;;;;;;;;;;;19.86;58.20;101931.06;7421567;19;1555;-86
2023/12/04 10:30:31;;;;;;;;;;;;;;;19.77;58.57;101930.91;7422923;19;1665;-87
2023/12/04 10:33:00;;;;;;;;;;;;;;;19.69;58.94;101923.38;7425869;19;1509;-87
2023/12/04 10:35:31;;;;;;;;;;;;;;;19.89;58.40;101929.97;7424293;19;1818;-87
2023/12/04 10:38:00;;;;;;;;;;;;;;;20.30;57.49;101918.00;7416937;19;1399;-87
2023/12/04 10:40:29;;;;;;;;;;;;;;;20.43;57.19;101920.59;7423917;19;1302;-87
2023/12/04 10:43:14;;;;;;;;;;;;;;;20.18;57.54;101919.78;7423777;19;1234;-87
2023/12/04 10:45:46;;;;;;;;;;;;;;;19.91;58.01;101924.50;7420193;19;1035;-87
2023/12/04 10:48:15;;;;;;;;;;;;;;;19.72;58.53;101923.19;7417157;19;1330;-86
2023/12/04 10:50:44;;;;;;;;;;;;;;;19.64;58.72;101941.66;7420253;19;1208;-86
2023/12/04 10:53:14;;;;;;;;;;;;;;;19.59;58.94;101917.81;7420792;19;1489;-86
2023/12/04 10:55:42;;;;;;;;;;;;;;;20.12;57.80;101920.22;7420664;19;1813;-87
2023/12/04 10:58:12;;;;;;;;;;;;;;;20.37;57.29;101929.13;7408174;19;1510;-87
2023/12/04 11:00:42;;;;;;;;;;;;;;;20.17;57.72;101930.63;7418189;19;1434;-88
2023/12/04 11:03:16;;;;;;;;;;;;;;;19.90;58.06;101926.34;7418340;19;1878;-87
2023/12/04 11:05:46;;;;;;;;;;;;;;;19.71;58.89;101926.81;7415089;19;1418;-87
2023/12/04 11:08:18;;;;;;;;;;;;;;;19.57;59.04;101929.63;7414339;19;1475;-87
2023/12/04 11:10:48;;;;;;;;;;;;;;;19.55;59.19;101931.56;7417429;19;1538;-87
2023/12/04 11:13:31;;;;;;;;;;;;;;;20.03;58.15;101931.66;7419784;19;1576;-87
2023/12/04 11:16:09;;;;;;;;;;;;;;;20.29;57.33;101915.41;7419763;19;1532;-87
2023/12/04 11:18:45;;;;;;;;;;;;;;;20.06;58.06;101920.69;7416444;19;1642;-86
2023/12/04 11:21:14;;;;;;;;;;;;;;;19.84;58.50;101924.97;7414499;19;1938;-87
2023/12/04 11:23:43;;;;;;;;;;;;;;;19.63;59.03;101921.97;7418824;19;1890;-87
2023/12/04 11:26:11;;;;;;;;;;;;;;;19.55;59.26;101924.38;7413064;19;1379;-86
2023/12/04 11:28:40;;;;;;;;;;;;;;;19.52;59.16;101911.19;7410034;19;1504;-86
2023/12/04 11:31:09;;;;;;;;;;;;;;;20.08;57.94;101912.53;7411237;19;1588;-78
2023/12/04 11:33:38;;;;;;;;;;;;;;;20.43;57.04;101918.78;7405542;19;1832;-78
2023/12/04 11:36:14;;;;;;;;;;;;;;;20.36;57.30;101922.91;7407177;19;1469;-78
2023/12/04 11:38:46;;;;;;;;;;;;;;;20.00;58.06;101907.72;7403984;19;1403;-78
2023/12/04 11:41:17;;;;;;;;;;;;;;;19.78;58.67;101916.53;7406376;19;1411;-77
2023/12/04 11:43:48;;;;;;;;;;;;;;;19.65;58.80;101914.69;7404362;19;1005;-78
2023/12/04 11:46:20;;;;;;;;;;;;;;;19.58;59.01;101915.25;7401001;19;1499;-78
2023/12/04 11:48:50;;;;;;;;;;;;;;;19.54;59.21;101919.97;7405279;19;1836;-79
2023/12/04 11:51:42;;;;;;;;;;;;;;;20.05;58.09;101901.06;7402622;19;1083;-77
2023/12/04 11:54:11;;;;;;;;;;;;;;;20.27;57.60;101897.59;7398056;19;1847;-76
2023/12/04 11:56:39;;;;;;;;;;;;;;;20.01;57.82;101909.44;7401700;19;1516;-77
2023/12/04 11:59:09;;;;;;;;;;;;;;;19.78;58.43;101906.63;7395741;19;1474;-78
2023/12/04 12:01:39;;;;;;;;;;;;;;;19.60;58.93;101887.34;7404076;19;1794;-77
2023/12/04 12:04:07;;;;;;;;;;;;;;;19.54;59.04;101903.88;7402683;19;1407;-77
2023/12/04 12:06:39;;;;;;;;;;;;;;;19.50;59.25;101896.16;7404052;19;1462;-78
2023/12/04 12:09:07;;;;;;;;;;;;;;;19.88;58.36;101881.81;7401851;19;1412;-78
2023/12/04 12:11:36;;;;;;;;;;;;;;;20.27;57.57;101886.84;7399219;19;1924;-78
2023/12/04 12:14:04;;;;;;;;;;;;;;;20.36;57.13;101881.75;7399112;19;1842;-78
2023/12/04 12:16:34;;;;;;;;;;;;;;;20.10;57.93;101899.84;7398545;19;1754;-78
2023/12/04 12:19:03;;;;;;;;;;;;;;;19.83;58.55;101887.50;7401900;19;1767;-78
2023/12/04 12:21:32;;;;;;;;;;;;;;;19.63;59.07;101887.09;7399755;19;1270;-78
2023/12/04 12:24:03;;;;;;;;;;;;;;;19.54;59.28;101886.94;7400146;19;1266;-78
2023/12/04 12:26:32;;;;;;;;;;;;;;;19.46;59.34;101896.38;7401140;19;1577;-78
2023/12/04 12:29:00;;;;;;;;;;;;;;;19.80;58.61;101893.94;7399184;19;1811;-78
2023/12/04 12:31:28;;;;;;;;;;;;;;;20.19;57.76;101913.44;7399383;19;1908;-78
2023/12/04 12:33:58;;;;;;;;;;;;;;;20.33;57.33;101885.50;7399974;19;1340;-78
2023/12/04 12:36:26;;;;;;;;;;;;;;;20.19;57.82;101897.34;7396752;19;1391;-78
2023/12/04 12:38:56;;;;;;;;;;;;;;;19.86;58.42;101898.00;7398032;19;1275;-79
2023/12/04 12:41:27;;;;;;;;;;;;;;;19.64;58.96;101898.72;7397689;19;1078;-78
2023/12/04 12:43:55;;;;;;;;;;;;;;;19.45;59.39;101891.97;7398743;19;1937;-78
2023/12/04 12:46:25;;;;;;;;;;;;;;;19.43;59.31;101885.03;7400057;19;1274;-78
2023/12/04 12:48:54;;;;;;;;;;;;;;;19.89;58.50;101889.72;7402824;19;2051;-77
2023/12/04 12:51:23;;;;;;;;;;;;;;;20.15;57.71;101871.66;7395911;19;1993;-78
2023/12/04 12:53:51;;;;;;;;;;;;;;;20.15;57.45;101877.03;7401113;19;1766;-78
2023/12/04 12:56:21;;;;;;;;;;;;;;;19.93;58.17;101871.56;7396899;19;1837;-78
2023/12/04 12:58:53;;;;;;;;;;;;;;;19.68;58.77;101860.78;7394753;19;1447;-79
2023/12/04 13:01:21;;;;;;;;;;;;;;;19.47;59.08;101876.63;7399444;19;1759;-78